91NY weather

Manitou Field
Spencerport, New York, United States

Public forecast

Using degrees Fahrenheit for public forecast. Weather courtesy of forecast.io.

Closest aviation weather report (METAR) to Manitou Field

Closest report is Greater Rochester International Airport, 5.7 nm (10.5 km) SE. Retrieved 2020/01/25 16:01 UTC (45 minutes ago):

KROC 251601Z 14010KT 8SM -RA SCT027 OVC046 02/00 A2990

Closest aviation forecast (TAF) to Manitou Field

Closest forecast is Greater Rochester International Airport, 5.7 nm (10.5 km) SE. Retrieved 2020/01/25 12:42 UTC (4 hours ago):

TAF KROC 251139Z 2512/2612 11011G19KT 6SM -RA OVC050 WS020/12040KT FM251500 12010G19KT 6SM -RA OVC030 FM251900 14006KT 4SM -DZ BR OVC012 FM252100 20005KT 5SM -DZ BR OVC007 FM260000 24008KT P6SM OVC012